createdAt,value
2022-10-21T00:00:49.148Z,2.16
2022-10-21T00:04:08.785Z,2.06
2022-10-21T00:07:24.979Z,2.07
2022-10-21T00:10:41.078Z,1.97
2022-10-21T00:13:57.122Z,1.98
2022-10-21T00:17:13.305Z,1.92
2022-10-21T00:20:29.564Z,1.89
2022-10-21T00:23:46.446Z,1.91
2022-10-21T00:27:03.504Z,1.91
2022-10-21T00:30:22.911Z,1.87
2022-10-21T00:33:38.945Z,1.85
2022-10-21T00:36:55.066Z,1.81
2022-10-21T00:40:12.193Z,1.82
2022-10-21T00:43:28.296Z,1.90
2022-10-21T00:46:49.144Z,2.07
2022-10-21T00:50:09.729Z,2.13
2022-10-21T00:53:26.398Z,2.07
2022-10-21T00:56:44.928Z,1.99
2022-10-21T01:00:05.870Z,2.09
2022-10-21T01:03:22.340Z,2.14
2022-10-21T01:06:39.848Z,2.18
2022-10-21T01:09:55.912Z,2.15
2022-10-21T01:13:26.989Z,2.15
2022-10-21T01:16:49.003Z,2.20
2022-10-21T01:20:37.734Z,2.03
2022-10-21T01:24:35.704Z,2.10
2022-10-21T01:27:58.578Z,2.13
2022-10-21T01:31:20.059Z,2.07
2022-10-21T01:34:40.403Z,2.07
2022-10-21T01:38:06.058Z,2.08
2022-10-21T01:41:26.652Z,2.10
2022-10-21T01:44:49.883Z,2.14
2022-10-21T01:48:10.371Z,2.06
2022-10-21T01:51:29.647Z,1.89
2022-10-21T01:54:50.144Z,1.82
2022-10-21T01:58:10.259Z,1.86
2022-10-21T02:01:29.182Z,1.72
2022-10-21T02:04:48.402Z,1.70
2022-10-21T02:08:04.682Z,1.61
2022-10-21T02:11:22.669Z,1.52
2022-10-21T02:14:42.869Z,1.41
2022-10-21T02:18:03.533Z,1.35
2022-10-21T02:21:24.253Z,1.34
2022-10-21T02:24:44.562Z,1.30
2022-10-21T02:28:01.170Z,1.23
2022-10-21T02:31:25.425Z,1.19
2022-10-21T02:34:49.327Z,1.17
2022-10-21T02:38:11.593Z,1.18
2022-10-21T02:41:31.139Z,1.22
2022-10-21T02:44:49.456Z,1.13
2022-10-21T02:48:05.821Z,1.12
2022-10-21T02:51:22.472Z,1.24
2022-10-21T02:54:38.501Z,1.18
2022-10-21T02:57:54.771Z,1.34
2022-10-21T03:01:11.483Z,1.48
2022-10-21T03:04:27.800Z,1.45
2022-10-21T03:07:44.259Z,1.38
2022-10-21T03:11:00.872Z,1.50
2022-10-21T03:14:16.857Z,1.45
2022-10-21T03:17:32.852Z,1.38
2022-10-21T03:20:49.057Z,1.29
2022-10-21T03:24:10.989Z,1.22
2022-10-21T03:27:24.322Z,1.19
2022-10-21T03:30:40.502Z,1.12
2022-10-21T03:33:56.589Z,1.08
2022-10-21T03:37:12.716Z,1.09
2022-10-21T03:40:31.024Z,1.02
2022-10-21T03:43:47.115Z,0.99
2022-10-21T03:47:03.261Z,0.91
2022-10-21T03:50:23.569Z,1.01
2022-10-21T03:53:43.196Z,0.93
2022-10-21T03:56:55.858Z,0.85
2022-10-21T04:03:28.814Z,0.70
2022-10-21T04:06:45.116Z,0.67
2022-10-21T04:10:01.335Z,0.66
2022-10-21T04:13:17.367Z,0.67
2022-10-21T04:16:34.453Z,0.65
2022-10-21T04:19:50.503Z,0.77
2022-10-21T04:23:09.615Z,0.93
2022-10-21T04:26:27.126Z,1.04
2022-10-21T04:29:43.345Z,1.06
2022-10-21T04:32:59.465Z,0.99
2022-10-21T04:36:16.361Z,0.93
2022-10-21T04:39:32.366Z,1.03
2022-10-21T04:42:49.078Z,1.10
2022-10-21T04:46:07.547Z,1.07
2022-10-21T04:49:23.301Z,1.03
2022-10-21T04:52:39.720Z,1.18
2022-10-21T04:55:58.209Z,1.03
2022-10-21T04:59:14.512Z,0.95
2022-10-21T05:02:30.574Z,0.91
2022-10-21T05:05:47.005Z,0.92
2022-10-21T05:09:03.204Z,0.88
2022-10-21T05:12:19.413Z,0.83
2022-10-21T05:15:35.787Z,0.84
2022-10-21T05:18:51.888Z,0.71
2022-10-21T05:22:08.297Z,0.76
2022-10-21T05:25:24.860Z,0.80
2022-10-21T05:28:41.977Z,0.76
2022-10-21T05:31:58.241Z,0.80
2022-10-21T05:35:16.017Z,0.84
2022-10-21T05:38:32.306Z,0.88
2022-10-21T05:41:48.780Z,0.89
2022-10-21T05:45:04.974Z,0.96
2022-10-21T05:48:21.773Z,0.98
2022-10-21T05:51:37.978Z,1.00
2022-10-21T05:54:54.202Z,0.96
2022-10-21T05:58:10.289Z,1.09
2022-10-21T06:01:26.556Z,1.09
2022-10-21T06:04:45.743Z,1.20
2022-10-21T06:08:01.796Z,1.41
2022-10-21T06:11:20.772Z,1.42
2022-10-21T06:14:37.439Z,1.56
2022-10-21T06:17:53.619Z,1.66
2022-10-21T06:21:10.331Z,1.60
2022-10-21T06:24:26.747Z,1.81
2022-10-21T06:27:42.906Z,1.78
2022-10-21T06:30:59.761Z,1.96
2022-10-21T06:37:32.046Z,2.18
2022-10-21T06:41:03.329Z,2.10
2022-10-21T06:44:30.522Z,2.25
2022-10-21T06:47:48.147Z,2.22
2022-10-21T06:51:11.694Z,2.12
2022-10-21T06:54:27.759Z,2.17
2022-10-21T06:57:45.011Z,2.29
2022-10-21T07:01:01.260Z,2.50
2022-10-21T07:04:17.884Z,2.50
2022-10-21T07:07:34.199Z,2.70
2022-10-21T07:10:50.413Z,2.81
2022-10-21T07:14:08.167Z,2.84
2022-10-21T07:17:24.415Z,2.94
2022-10-21T07:20:40.909Z,2.96
2022-10-21T07:23:59.786Z,2.93
2022-10-21T07:27:16.312Z,2.90
2022-10-21T07:30:33.149Z,2.93
2022-10-21T07:33:49.656Z,2.96
2022-10-21T07:37:08.057Z,2.96
2022-10-21T07:40:24.336Z,2.87
2022-10-21T07:43:43.693Z,3.08
2022-10-21T07:47:48.378Z,3.33
2022-10-21T07:51:13.159Z,3.54
2022-10-21T07:54:29.768Z,3.73
2022-10-21T07:57:46.161Z,3.84
2022-10-21T08:01:05.417Z,4.01
2022-10-21T08:04:25.440Z,4.11
2022-10-21T08:07:42.451Z,4.24
2022-10-21T08:11:00.311Z,4.39
2022-10-21T08:14:19.988Z,4.52
2022-10-21T08:17:36.412Z,4.75
2022-10-21T08:20:54.544Z,4.91
2022-10-21T08:24:12.615Z,5.00
2022-10-21T08:27:31.889Z,5.18
2022-10-21T08:30:49.393Z,5.38
2022-10-21T08:34:05.986Z,5.51
2022-10-21T08:37:25.500Z,5.73
2022-10-21T08:40:47.188Z,5.91
2022-10-21T08:44:06.217Z,5.96
2022-10-21T08:47:30.345Z,6.02
2022-10-21T08:50:51.101Z,6.18
2022-10-21T08:54:11.349Z,6.45
2022-10-21T08:57:27.853Z,6.57
2022-10-21T09:00:49.124Z,6.69
2022-10-21T09:04:12.710Z,6.68
2022-10-21T09:07:40.567Z,6.71
2022-10-21T09:11:41.194Z,6.74
2022-10-21T09:15:40.565Z,6.90
2022-10-21T09:19:08.296Z,6.92
2022-10-21T09:22:39.973Z,6.94
2022-10-21T09:26:02.049Z,6.96
2022-10-21T09:29:36.844Z,6.99
2022-10-21T09:32:55.000Z,7.07
2022-10-21T09:36:16.162Z,7.13
2022-10-21T09:39:38.366Z,7.22
2022-10-21T09:42:57.311Z,7.22
2022-10-21T09:46:15.300Z,7.20
2022-10-21T09:50:02.047Z,7.24
2022-10-21T09:53:01.357Z,7.25
2022-10-21T09:56:23.682Z,7.26
2022-10-21T10:03:02.192Z,7.26
2022-10-21T10:06:19.848Z,7.35
2022-10-21T10:09:38.711Z,7.42
2022-10-21T10:13:03.091Z,7.49
2022-10-21T10:16:38.857Z,7.60
2022-10-21T10:20:24.314Z,7.72
2022-10-21T10:23:49.664Z,7.84
2022-10-21T10:27:10.713Z,7.88
2022-10-21T10:30:28.661Z,8.00
2022-10-21T10:33:45.661Z,8.14
2022-10-21T10:37:10.531Z,8.27
2022-10-21T10:40:33.132Z,8.40
2022-10-21T10:43:54.372Z,8.40
2022-10-21T10:47:14.366Z,8.53
2022-10-21T10:50:55.258Z,8.60
2022-10-21T10:54:25.102Z,8.66
2022-10-21T10:57:58.167Z,8.74
2022-10-21T11:01:06.964Z,8.81
2022-10-21T11:04:29.311Z,8.87
2022-10-21T11:07:52.438Z,8.92
2022-10-21T11:11:12.880Z,8.96
2022-10-21T11:14:29.429Z,9.02
2022-10-21T11:17:50.081Z,9.04
2022-10-21T11:21:20.153Z,9.06
2022-10-21T11:25:10.071Z,9.08
2022-10-21T11:28:31.676Z,9.12
2022-10-21T11:32:10.563Z,9.16
2022-10-21T11:35:30.029Z,9.18
2022-10-21T11:39:04.014Z,9.21
2022-10-21T11:42:28.093Z,9.27
2022-10-21T11:46:01.527Z,9.31
2022-10-21T11:49:38.802Z,9.35
2022-10-21T11:53:07.343Z,9.43
2022-10-21T11:56:33.373Z,9.50
2022-10-21T12:00:03.605Z,9.58
2022-10-21T12:03:44.250Z,9.63
2022-10-21T12:07:23.870Z,9.70
2022-10-21T12:10:51.036Z,9.76
2022-10-21T12:14:15.800Z,9.82
2022-10-21T12:17:34.347Z,9.87
2022-10-21T12:20:53.893Z,9.93
2022-10-21T12:24:12.238Z,9.98
2022-10-21T12:27:35.949Z,10.02
2022-10-21T12:30:58.916Z,10.09
2022-10-21T12:34:17.645Z,10.16
2022-10-21T12:37:54.566Z,10.23
2022-10-21T12:41:36.946Z,10.29
2022-10-21T12:44:58.113Z,10.40
2022-10-21T12:48:41.492Z,10.54
2022-10-21T12:52:03.302Z,10.63
2022-10-21T12:55:31.214Z,10.71
2022-10-21T12:58:52.546Z,10.78
2022-10-21T13:02:34.301Z,10.85
2022-10-21T13:06:13.307Z,10.91
2022-10-21T13:09:48.440Z,10.99
2022-10-21T13:13:42.114Z,11.06
2022-10-21T13:16:58.652Z,11.09
2022-10-21T13:20:55.235Z,11.16
2022-10-21T13:24:31.400Z,11.27
2022-10-21T13:27:52.266Z,11.35
2022-10-21T13:31:09.584Z,11.40
2022-10-21T13:34:42.260Z,11.44
2022-10-21T13:38:09.691Z,11.53
2022-10-21T13:41:34.457Z,11.57
2022-10-21T13:44:58.098Z,11.62
2022-10-21T13:48:27.696Z,11.70
2022-10-21T13:51:55.039Z,11.75
2022-10-21T13:55:23.004Z,11.79
2022-10-21T13:58:43.131Z,11.83
2022-10-21T14:02:01.900Z,11.87
2022-10-21T14:05:48.410Z,11.88
2022-10-21T14:09:08.749Z,11.86
2022-10-21T14:12:39.446Z,11.86
2022-10-21T14:15:56.113Z,11.88
2022-10-21T14:19:19.019Z,11.89
2022-10-21T14:22:36.507Z,11.90
2022-10-21T14:25:54.704Z,11.89
2022-10-21T14:29:12.667Z,11.87
2022-10-21T14:32:32.261Z,11.86
2022-10-21T14:35:52.121Z,11.84
2022-10-21T14:39:14.693Z,11.83
2022-10-21T14:42:33.203Z,11.79
2022-10-21T14:48:59.585Z,11.75
2022-10-21T14:52:33.692Z,11.72
2022-10-21T14:55:50.503Z,11.70
2022-10-21T14:59:12.160Z,11.61
2022-10-21T15:02:34.964Z,11.54
2022-10-21T15:06:04.339Z,11.45
2022-10-21T15:09:32.029Z,11.36
2022-10-21T15:13:02.626Z,11.27
2022-10-21T15:16:25.360Z,11.15
2022-10-21T15:19:53.154Z,11.06
2022-10-21T15:23:16.662Z,11.02
2022-10-21T15:26:38.863Z,10.96
2022-10-21T15:29:58.963Z,10.89
2022-10-21T15:33:23.708Z,10.81
2022-10-21T15:36:40.233Z,10.76
2022-10-21T15:39:57.028Z,10.72
2022-10-21T15:43:18.820Z,10.63
2022-10-21T15:46:41.512Z,10.55
2022-10-21T15:49:58.278Z,10.49
2022-10-21T15:53:15.283Z,10.50
2022-10-21T15:56:32.411Z,10.48
2022-10-21T15:59:49.207Z,10.45
2022-10-21T16:03:06.157Z,10.37
2022-10-21T16:06:26.558Z,10.32
2022-10-21T16:09:43.072Z,10.25
2022-10-21T16:13:02.416Z,10.25
2022-10-21T16:16:28.968Z,10.22
2022-10-21T16:19:47.025Z,10.18
2022-10-21T16:23:05.001Z,10.18
2022-10-21T16:26:28.225Z,10.18
2022-10-21T16:29:45.058Z,10.17
2022-10-21T16:33:07.054Z,10.16
2022-10-21T16:36:30.307Z,10.12
2022-10-21T16:40:03.332Z,10.15
2022-10-21T16:43:28.055Z,10.16
2022-10-21T16:46:47.565Z,10.15
2022-10-21T16:50:06.724Z,10.17
2022-10-21T16:53:28.109Z,10.16
2022-10-21T16:57:14.258Z,10.13
2022-10-21T17:00:34.739Z,10.13
2022-10-21T17:03:52.099Z,10.14
2022-10-21T17:07:16.468Z,10.15
2022-10-21T17:10:43.697Z,10.13
2022-10-21T17:14:12.133Z,10.09
2022-10-21T17:17:40.592Z,10.06
2022-10-21T17:21:00.931Z,10.05
2022-10-21T17:24:33.864Z,10.03
2022-10-21T17:32:56.417Z,10.02
2022-10-21T17:36:49.398Z,10.00
2022-10-21T17:40:38.375Z,10.05
2022-10-21T17:44:49.544Z,10.01
2022-10-21T17:48:26.117Z,9.96
2022-10-21T17:51:59.355Z,9.96
2022-10-21T17:55:34.403Z,9.92
2022-10-21T17:58:57.182Z,9.92
2022-10-21T18:02:19.441Z,9.91
2022-10-21T18:05:41.448Z,9.94
2022-10-21T18:09:08.165Z,9.90
2022-10-21T18:12:27.642Z,9.84
2022-10-21T18:15:46.505Z,9.80
2022-10-21T18:19:08.094Z,9.81
2022-10-21T18:22:25.062Z,9.81
2022-10-21T18:25:43.029Z,9.80
2022-10-21T18:29:02.534Z,9.75
2022-10-21T18:32:24.725Z,9.69
2022-10-21T18:35:43.760Z,9.66
2022-10-21T18:39:04.964Z,9.65
2022-10-21T18:43:08.169Z,9.64
2022-10-21T18:46:31.272Z,9.63
2022-10-21T18:49:48.359Z,9.64
2022-10-21T18:53:31.468Z,9.65
2022-10-21T18:56:54.562Z,9.64
2022-10-21T19:00:21.708Z,9.58
2022-10-21T19:03:45.487Z,9.57
2022-10-21T19:07:17.643Z,9.54
2022-10-21T19:10:43.883Z,9.53
2022-10-21T19:14:09.849Z,9.59
2022-10-21T19:17:26.364Z,9.59
2022-10-21T19:21:16.661Z,9.60
2022-10-21T19:24:38.706Z,9.61
2022-10-21T19:28:01.188Z,9.63
2022-10-21T19:31:24.257Z,9.65
2022-10-21T19:34:41.204Z,9.70
2022-10-21T19:38:01.919Z,9.74
2022-10-21T19:41:23.577Z,9.75
2022-10-21T19:44:40.818Z,9.79
2022-10-21T19:48:03.801Z,9.85
2022-10-21T19:51:30.161Z,9.85
2022-10-21T19:54:46.724Z,9.90
2022-10-21T19:58:08.715Z,9.95
2022-10-21T20:01:33.291Z,10.01
2022-10-21T20:04:52.527Z,10.00
2022-10-21T20:08:08.971Z,9.99
2022-10-21T20:11:28.729Z,9.95
2022-10-21T21:05:22.348Z,9.93
2022-10-21T21:08:48.833Z,9.82
2022-10-21T21:12:04.402Z,9.75
2022-10-21T21:15:21.548Z,9.66
2022-10-21T21:18:40.134Z,9.60
2022-10-21T21:21:56.878Z,9.58
2022-10-21T21:25:16.126Z,9.58
2022-10-21T21:28:35.458Z,9.54
2022-10-21T21:31:51.293Z,9.50
2022-10-21T21:35:08.397Z,9.42
2022-10-21T21:38:24.820Z,9.38
2022-10-21T21:41:42.168Z,9.42
2022-10-21T21:44:58.352Z,9.37
2022-10-21T21:51:33.273Z,9.36
2022-10-21T21:54:51.872Z,9.35
2022-10-21T21:58:08.469Z,9.34
2022-10-21T22:01:27.451Z,9.32
2022-10-21T22:04:45.776Z,9.23
2022-10-21T22:08:02.226Z,9.27
2022-10-21T22:11:21.774Z,9.28
2022-10-21T22:14:38.181Z,9.20
2022-10-21T22:17:56.564Z,9.11
2022-10-21T22:21:14.998Z,9.06
2022-10-21T22:24:31.210Z,9.03
2022-10-21T22:27:51.270Z,8.98
2022-10-21T22:31:10.701Z,8.92
2022-10-21T22:34:26.923Z,8.87
2022-10-21T22:37:44.470Z,8.83
2022-10-21T22:41:07.341Z,8.76
2022-10-21T22:44:23.796Z,8.72
2022-10-21T22:47:40.211Z,8.78
2022-10-21T22:50:56.794Z,8.73
2022-10-21T22:54:24.314Z,8.69
2022-10-21T22:57:32.440Z,8.69
2022-10-21T23:00:48.861Z,8.70
2022-10-21T23:04:06.518Z,8.72
2022-10-21T23:07:22.860Z,8.77
2022-10-21T23:10:41.925Z,8.80
2022-10-21T23:14:03.282Z,8.82
2022-10-21T23:17:16.327Z,8.89
2022-10-21T23:20:32.730Z,8.96
2022-10-21T23:23:49.570Z,8.90
2022-10-21T23:27:05.833Z,8.87
2022-10-21T23:30:24.199Z,8.85
2022-10-21T23:33:40.521Z,8.86
2022-10-21T23:36:56.701Z,8.82
2022-10-21T23:40:15.635Z,8.81
2022-10-21T23:43:32.421Z,8.83
2022-10-21T23:46:49.224Z,8.86
2022-10-21T23:50:06.799Z,8.85
2022-10-21T23:53:23.105Z,8.90
2022-10-21T23:56:39.442Z,8.92
2022-10-21T23:59:55.650Z,8.92
